createdAt,value
2016-10-11T00:00:10.961Z,8.77
2016-10-11T00:01:25.904Z,8.77
2016-10-11T00:02:11.006Z,8.83
2016-10-11T00:03:11.282Z,8.73
2016-10-11T00:04:11.043Z,8.74
2016-10-11T00:05:11.066Z,8.71
2016-10-11T00:06:11.087Z,8.68
2016-10-11T00:07:11.122Z,8.71
2016-10-11T00:08:11.130Z,8.7
2016-10-11T00:09:11.155Z,8.71
2016-10-11T00:10:11.174Z,8.74
2016-10-11T00:11:11.186Z,8.76
2016-10-11T00:12:11.209Z,8.77
2016-10-11T00:13:26.156Z,8.71
2016-10-11T00:14:11.253Z,8.73
2016-10-11T00:16:26.219Z,8.81
2016-10-11T00:17:11.315Z,8.91
2016-10-11T00:18:11.334Z,8.8
2016-10-11T00:19:11.354Z,8.79
2016-10-11T00:20:11.396Z,8.79
2016-10-11T00:21:11.394Z,8.79
2016-10-11T00:22:11.422Z,8.74
2016-10-11T00:23:11.486Z,8.8
2016-10-11T00:24:11.511Z,8.83
2016-10-11T00:25:11.477Z,8.79
2016-10-11T00:26:11.498Z,8.87
2016-10-11T00:27:11.522Z,8.81
2016-10-11T00:28:11.549Z,8.8
2016-10-11T00:29:26.484Z,8.8
2016-10-11T00:31:11.598Z,8.84
2016-10-11T00:32:11.628Z,8.83
2016-10-11T00:33:11.649Z,8.91
2016-10-11T00:34:11.666Z,8.94
2016-10-11T00:35:11.686Z,8.89
2016-10-11T00:36:11.709Z,8.99
2016-10-11T00:37:11.782Z,8.94
2016-10-11T00:38:11.754Z,8.94
2016-10-11T00:39:11.764Z,8.86
2016-10-11T00:40:11.804Z,8.84
2016-10-11T00:41:11.811Z,8.94
2016-10-11T00:42:11.831Z,8.87
2016-10-11T00:44:26.798Z,8.84
2016-10-11T00:45:11.893Z,8.92
2016-10-11T00:46:11.918Z,8.91
2016-10-11T00:47:11.934Z,8.86
2016-10-11T00:48:26.876Z,8.92
2016-10-11T00:49:12.028Z,8.91
2016-10-11T00:50:11.996Z,8.94
2016-10-11T00:51:12.017Z,8.94
2016-10-11T00:52:12.036Z,9.02
2016-10-11T00:53:12.062Z,8.99
2016-10-11T00:54:12.085Z,8.98
2016-10-11T00:55:12.101Z,9.02
2016-10-11T00:56:12.128Z,9.02
2016-10-11T00:57:12.193Z,9.01
2016-10-11T00:58:12.164Z,9.01
2016-10-11T00:59:12.432Z,8.94
2016-10-11T01:00:27.170Z,9.02
2016-10-11T01:02:12.240Z,9.05
2016-10-11T01:03:12.266Z,9.11
2016-10-11T01:04:27.209Z,9.05
2016-10-11T01:05:12.315Z,9.04
2016-10-11T01:07:12.347Z,9.02
2016-10-11T01:08:12.370Z,9.01
2016-10-11T01:09:12.405Z,9.02
2016-10-11T01:10:12.410Z,8.94
2016-10-11T01:11:12.428Z,8.98
2016-10-11T01:13:12.467Z,8.92
2016-10-11T01:14:12.496Z,8.92
2016-10-11T01:15:27.437Z,8.91
2016-10-11T01:16:12.587Z,8.91
2016-10-11T01:17:12.553Z,8.98
2016-10-11T01:18:12.828Z,8.98
2016-10-11T01:19:12.601Z,8.94
2016-10-11T01:20:27.536Z,8.98
2016-10-11T01:21:12.637Z,8.96
2016-10-11T01:22:12.653Z,8.95
2016-10-11T01:23:12.682Z,8.98
2016-10-11T01:24:12.697Z,8.98
2016-10-11T01:25:12.724Z,8.99
2016-10-11T01:26:12.740Z,9.02
2016-10-11T01:27:12.810Z,8.99
2016-10-11T01:28:12.783Z,9.02
2016-10-11T01:29:12.805Z,8.96
2016-10-11T01:30:12.821Z,8.95
2016-10-11T01:31:12.842Z,8.96
2016-10-11T01:32:12.871Z,8.95
2016-10-11T01:33:12.897Z,8.95
2016-10-11T01:34:12.909Z,9.02
2016-10-11T01:35:12.929Z,8.91
2016-10-11T01:36:27.879Z,9.02
2016-10-11T01:37:12.970Z,9.08
2016-10-11T01:38:12.988Z,9.17
2016-10-11T01:39:13.010Z,9.1
2016-10-11T01:40:13.032Z,9.04
2016-10-11T01:41:13.044Z,9.08
2016-10-11T01:42:13.126Z,9.02
2016-10-11T01:43:13.095Z,9.11
2016-10-11T01:44:13.110Z,9.13
2016-10-11T01:46:13.152Z,9.13
2016-10-11T01:47:13.178Z,9.08
2016-10-11T01:48:13.200Z,9.15
2016-10-11T01:49:13.212Z,8.98
2016-10-11T01:50:13.240Z,9.04
2016-10-11T01:51:28.178Z,9.11
2016-10-11T01:52:13.279Z,9.01
2016-10-11T01:53:13.300Z,9.04
2016-10-11T01:54:13.322Z,8.94
2016-10-11T01:55:13.335Z,8.98
2016-10-11T01:56:13.365Z,9.08
2016-10-11T01:57:13.379Z,9.01
2016-10-11T01:58:13.406Z,9.02
2016-10-11T01:59:13.428Z,9.1
2016-10-11T02:00:13.446Z,9.04
2016-10-11T02:01:13.462Z,9.08
2016-10-11T02:02:28.459Z,9.02
2016-10-11T02:03:13.506Z,9.08
2016-10-11T02:04:13.774Z,9.08
2016-10-11T02:05:13.549Z,8.95
2016-10-11T02:06:13.574Z,8.99
2016-10-11T02:07:13.590Z,8.98
2016-10-11T02:08:13.609Z,9.04
2016-10-11T02:09:13.636Z,9.05
2016-10-11T02:10:13.656Z,8.96
2016-10-11T02:11:13.671Z,9.1
2016-10-11T02:12:13.708Z,8.96
2016-10-11T02:13:13.715Z,9.13
2016-10-11T02:15:13.758Z,9.11
2016-10-11T02:16:13.780Z,8.98
2016-10-11T02:17:13.795Z,9.08
2016-10-11T02:18:13.813Z,9.08
2016-10-11T02:19:13.834Z,9.05
2016-10-11T02:21:14.132Z,9.17
2016-10-11T02:23:28.838Z,9.05
2016-10-11T02:24:13.944Z,9.08
2016-10-11T02:25:13.964Z,9.08
2016-10-11T02:26:13.983Z,9.05
2016-10-11T02:27:14.006Z,9.11
2016-10-11T02:28:14.028Z,9.11
2016-10-11T02:29:14.046Z,9.15
2016-10-11T02:30:14.063Z,9.11
2016-10-11T02:31:14.090Z,9.02
2016-10-11T02:32:14.099Z,9.13
2016-10-11T02:33:14.127Z,9.04
2016-10-11T02:34:14.149Z,9.17
2016-10-11T02:35:14.169Z,9.01
2016-10-11T02:36:14.188Z,9.18
2016-10-11T02:38:14.227Z,9.18
2016-10-11T02:39:29.171Z,9.13
2016-10-11T02:40:14.270Z,9.1
2016-10-11T02:41:14.288Z,9.11
2016-10-11T02:42:14.315Z,9.08
2016-10-11T02:43:14.327Z,9.05
2016-10-11T02:44:14.351Z,9.05
2016-10-11T02:45:14.372Z,9.04
2016-10-11T02:46:14.397Z,9.08
2016-10-11T02:47:14.417Z,9.1
2016-10-11T02:48:14.437Z,9.15
2016-10-11T02:49:14.462Z,9.18
2016-10-11T02:50:14.478Z,9.18
2016-10-11T02:51:14.496Z,9.11
2016-10-11T02:52:14.516Z,9.17
2016-10-11T02:54:29.481Z,9.1
2016-10-11T02:55:29.501Z,9.15
2016-10-11T02:56:14.602Z,9.14
2016-10-11T02:57:14.630Z,9.2
2016-10-11T02:58:14.642Z,9.18
2016-10-11T02:59:14.660Z,9.14
2016-10-11T03:00:14.685Z,9.04
2016-10-11T03:01:14.708Z,9.1
2016-10-11T03:02:14.724Z,8.98
2016-10-11T03:03:14.745Z,9.04
2016-10-11T03:04:14.764Z,8.94
2016-10-11T03:05:14.793Z,9.11
2016-10-11T03:07:14.832Z,8.92
2016-10-11T03:08:14.850Z,8.98
2016-10-11T03:09:14.876Z,8.95
2016-10-11T03:10:14.883Z,8.96
2016-10-11T03:11:29.830Z,8.96
2016-10-11T03:13:14.952Z,8.94
2016-10-11T03:14:15.225Z,8.92
2016-10-11T03:15:14.989Z,8.92
2016-10-11T03:16:15.016Z,8.87
2016-10-11T03:17:15.030Z,8.87
2016-10-11T03:18:15.056Z,8.84
2016-10-11T03:19:15.070Z,8.87
2016-10-11T03:20:15.089Z,8.84
2016-10-11T03:21:15.112Z,8.89
2016-10-11T03:23:15.154Z,8.87
2016-10-11T03:25:15.199Z,8.87
2016-10-11T03:26:30.140Z,8.87
2016-10-11T03:27:15.251Z,8.86
2016-10-11T03:28:15.262Z,8.81
2016-10-11T03:29:30.452Z,8.89
2016-10-11T03:30:15.305Z,8.84
2016-10-11T03:31:15.321Z,8.86
2016-10-11T03:32:15.343Z,8.81
2016-10-11T03:33:15.960Z,8.79
2016-10-11T03:34:15.399Z,8.79
2016-10-11T03:35:15.400Z,8.76
2016-10-11T03:36:15.726Z,8.77
2016-10-11T03:37:15.446Z,8.79
2016-10-11T03:39:30.408Z,8.77
2016-10-11T03:40:30.426Z,8.74
2016-10-11T03:41:30.749Z,8.74
2016-10-11T03:42:15.547Z,8.83
2016-10-11T03:43:15.567Z,8.8
2016-10-11T03:44:15.594Z,8.76
2016-10-11T03:45:15.608Z,8.65
2016-10-11T03:47:15.650Z,8.74
2016-10-11T03:50:15.724Z,8.68
2016-10-11T03:51:15.735Z,8.68
2016-10-11T03:52:15.754Z,8.65
2016-10-11T03:53:30.697Z,8.68
2016-10-11T03:55:15.810Z,8.74
2016-10-11T03:56:16.139Z,8.73
2016-10-11T03:57:15.852Z,8.71
2016-10-11T03:58:30.797Z,8.74
2016-10-11T03:59:15.891Z,8.7
2016-10-11T04:00:15.918Z,8.7
2016-10-11T04:01:15.935Z,8.68
2016-10-11T04:02:15.949Z,8.73
2016-10-11T04:03:15.974Z,8.7
2016-10-11T04:04:15.997Z,8.71
2016-10-11T04:05:16.014Z,8.7
2016-10-11T04:06:16.037Z,8.7
2016-10-11T04:07:16.060Z,8.68
2016-10-11T04:08:16.069Z,8.76
2016-10-11T04:09:31.019Z,8.79
2016-10-11T04:10:16.111Z,8.71
2016-10-11T04:11:16.442Z,8.71
2016-10-11T04:12:16.453Z,8.7
2016-10-11T04:13:16.185Z,8.62
2016-10-11T04:14:31.118Z,8.63
2016-10-11T04:15:16.234Z,8.68
2016-10-11T04:16:16.237Z,8.79
2016-10-11T04:17:16.256Z,8.71
2016-10-11T04:18:16.282Z,8.7
2016-10-11T04:19:16.603Z,8.76
2016-10-11T04:20:16.322Z,8.71
2016-10-11T04:21:16.343Z,8.7
2016-10-11T04:23:16.381Z,8.71
2016-10-11T04:24:16.399Z,8.74
2016-10-11T04:25:16.425Z,8.73
2016-10-11T04:26:16.444Z,8.83
2016-10-11T04:27:16.464Z,8.79
2016-10-11T04:28:16.482Z,8.83
2016-10-11T04:29:16.512Z,8.8
2016-10-11T04:30:31.449Z,8.74
2016-10-11T04:31:31.464Z,8.83
2016-10-11T04:32:16.568Z,8.79
2016-10-11T04:33:16.591Z,8.83
2016-10-11T04:34:16.910Z,8.8
2016-10-11T04:35:16.625Z,8.79
2016-10-11T04:36:16.648Z,8.77
2016-10-11T04:38:16.683Z,8.63
2016-10-11T04:39:17.011Z,8.76
2016-10-11T04:40:16.726Z,8.81
2016-10-11T04:41:16.745Z,8.76
2016-10-11T04:42:16.773Z,8.74
2016-10-11T04:44:16.814Z,8.71
2016-10-11T04:45:16.826Z,8.74
2016-10-11T04:46:31.774Z,8.71
2016-10-11T04:47:17.166Z,8.76
2016-10-11T04:48:16.895Z,8.7
2016-10-11T04:49:16.906Z,8.76
2016-10-11T04:50:16.933Z,8.68
2016-10-11T04:51:16.953Z,8.7
2016-10-11T04:52:16.973Z,8.65
2016-10-11T04:53:16.989Z,8.7
2016-10-11T04:54:17.023Z,8.68
2016-10-11T04:56:17.052Z,8.77
2016-10-11T04:57:31.997Z,8.73
2016-10-11T04:58:17.097Z,8.68
2016-10-11T04:59:17.120Z,8.73
2016-10-11T05:00:17.135Z,8.73
2016-10-11T05:01:32.080Z,8.7
2016-10-11T05:02:17.172Z,8.71
2016-10-11T05:03:17.197Z,8.68
2016-10-11T05:04:17.215Z,8.68
2016-10-11T05:05:17.241Z,8.65
2016-10-11T05:06:17.259Z,8.68
2016-10-11T05:07:17.576Z,8.71
2016-10-11T05:08:17.300Z,8.66
2016-10-11T05:09:17.324Z,8.7
2016-10-11T05:10:17.338Z,8.58
2016-10-11T05:11:17.362Z,8.63
2016-10-11T05:12:17.379Z,8.7
2016-10-11T05:13:17.396Z,8.61
2016-10-11T05:14:17.424Z,8.68
2016-10-11T05:15:17.445Z,8.61
2016-10-11T05:16:32.381Z,8.62
2016-10-11T05:17:17.483Z,8.58
2016-10-11T05:18:17.511Z,8.68
2016-10-11T05:19:17.523Z,8.7
2016-10-11T05:20:17.542Z,8.61
2016-10-11T05:21:17.566Z,8.63
2016-10-11T05:22:17.582Z,8.62
2016-10-11T05:23:17.607Z,8.74
2016-10-11T05:24:17.619Z,8.71
2016-10-11T05:25:17.638Z,8.71
2016-10-11T05:26:17.662Z,8.77
2016-10-11T05:27:17.688Z,8.83
2016-10-11T05:28:17.708Z,8.74
2016-10-11T05:30:17.746Z,8.73
2016-10-11T05:31:17.769Z,8.71
2016-10-11T05:32:17.790Z,8.7
2016-10-11T05:33:32.728Z,8.68
2016-10-11T05:34:17.827Z,8.73
2016-10-11T05:35:18.096Z,8.71
2016-10-11T05:36:18.187Z,8.66
2016-10-11T05:37:17.885Z,8.63
2016-10-11T05:38:17.907Z,8.74
2016-10-11T05:39:17.928Z,8.73
2016-10-11T05:40:17.947Z,8.68
2016-10-11T05:42:17.987Z,8.62
2016-10-11T05:43:18.004Z,8.79
2016-10-11T05:44:18.027Z,8.74
2016-10-11T05:45:18.051Z,8.74
2016-10-11T05:46:18.321Z,8.86
2016-10-11T05:47:18.087Z,8.8
2016-10-11T05:48:33.031Z,8.81
2016-10-11T05:49:33.052Z,8.87
2016-10-11T05:50:18.154Z,8.86
2016-10-11T05:51:18.176Z,8.95
2016-10-11T05:52:18.187Z,8.92
2016-10-11T05:53:18.213Z,8.92
2016-10-11T05:54:18.235Z,8.91
2016-10-11T05:55:18.255Z,8.89
2016-10-11T05:56:18.274Z,8.98
2016-10-11T05:57:18.294Z,8.91
2016-10-11T05:58:18.317Z,8.98
2016-10-11T05:59:18.336Z,8.99
2016-10-11T06:00:18.360Z,9.01
2016-10-11T06:02:18.391Z,8.99
2016-10-11T06:03:18.422Z,8.89
2016-10-11T06:04:18.438Z,9.1
2016-10-11T06:05:33.379Z,9.01
2016-10-11T06:06:18.478Z,8.95
2016-10-11T06:07:18.503Z,8.96
2016-10-11T06:08:18.517Z,8.95
2016-10-11T06:09:18.546Z,9.08
2016-10-11T06:10:33.488Z,9.08
2016-10-11T06:11:18.577Z,9.13
2016-10-11T06:13:18.617Z,9.08
2016-10-11T06:14:18.654Z,9.13
2016-10-11T06:15:18.660Z,9.04
2016-10-11T06:16:18.688Z,9.14
2016-10-11T06:17:18.705Z,9.15
2016-10-11T06:18:18.725Z,9.18
2016-10-11T06:19:18.751Z,9.13
2016-10-11T06:20:19.014Z,9.23
2016-10-11T06:21:33.711Z,9.32
2016-10-11T06:22:18.806Z,9.32
2016-10-11T06:23:18.830Z,9.2
2016-10-11T06:24:18.850Z,9.31
2016-10-11T06:25:18.865Z,9.31
2016-10-11T06:26:18.892Z,9.2
2016-10-11T06:27:18.909Z,9.24
2016-10-11T06:28:18.927Z,9.11
2016-10-11T06:29:18.948Z,9.14
2016-10-11T06:30:18.968Z,9.21
2016-10-11T06:31:18.991Z,9.23
2016-10-11T06:32:33.937Z,9.23
2016-10-11T06:33:19.036Z,9.23
2016-10-11T06:35:19.079Z,9.26
2016-10-11T06:36:34.015Z,9.31
2016-10-11T06:37:19.122Z,9.28
2016-10-11T06:38:19.140Z,9.35
2016-10-11T06:39:19.159Z,9.42
2016-10-11T06:40:19.182Z,9.51
2016-10-11T06:41:19.197Z,9.4
2016-10-11T06:42:19.219Z,9.46
2016-10-11T06:43:19.239Z,9.47
2016-10-11T06:44:19.266Z,9.5
2016-10-11T06:45:19.280Z,9.42
2016-10-11T06:46:19.309Z,9.46
2016-10-11T06:47:19.321Z,9.5
2016-10-11T06:48:19.597Z,9.47
2016-10-11T06:49:19.361Z,9.47
2016-10-11T06:50:19.389Z,9.51
2016-10-11T06:51:34.326Z,9.46
2016-10-11T06:52:19.427Z,9.36
2016-10-11T06:53:19.444Z,9.46
2016-10-11T06:54:19.470Z,9.33
2016-10-11T06:55:19.491Z,9.35
2016-10-11T06:56:19.509Z,9.38
2016-10-11T06:57:19.534Z,9.38
2016-10-11T06:58:19.561Z,9.46
2016-10-11T06:59:19.571Z,9.46
2016-10-11T07:00:19.591Z,9.42
2016-10-11T07:01:19.621Z,9.46
2016-10-11T07:02:19.635Z,9.35
2016-10-11T07:03:19.654Z,9.4
2016-10-11T07:04:34.600Z,9.38
2016-10-11T07:05:19.703Z,9.33
2016-10-11T07:06:19.719Z,9.48
2016-10-11T07:07:19.764Z,9.43
2016-10-11T07:08:34.682Z,9.57
2016-10-11T07:09:19.790Z,9.56
2016-10-11T07:10:19.805Z,9.61
2016-10-11T07:11:19.823Z,9.64
2016-10-11T07:12:19.847Z,9.43
2016-10-11T07:13:19.865Z,9.48
2016-10-11T07:14:19.889Z,9.51
2016-10-11T07:15:19.908Z,9.57
2016-10-11T07:16:19.929Z,9.61
2016-10-11T07:17:19.951Z,9.58
2016-10-11T07:18:19.974Z,9.64
2016-10-11T07:20:20.007Z,9.53
2016-10-11T07:21:20.036Z,9.61
2016-10-11T07:22:20.062Z,9.74
2016-10-11T07:23:20.075Z,9.72
2016-10-11T07:24:35.017Z,9.61
2016-10-11T07:25:20.119Z,9.54
2016-10-11T07:26:20.138Z,9.65
2016-10-11T07:27:20.169Z,9.81
2016-10-11T07:28:20.181Z,9.81
2016-10-11T07:29:20.204Z,9.81
2016-10-11T07:30:20.220Z,9.9
2016-10-11T07:31:20.250Z,9.91
2016-10-11T07:32:20.263Z,9.86
2016-10-11T07:33:20.284Z,9.9
2016-10-11T07:34:20.308Z,9.91
2016-10-11T07:36:20.352Z,9.9
2016-10-11T07:37:20.623Z,9.94
2016-10-11T07:38:20.649Z,9.97
2016-10-11T07:39:20.409Z,10.07
2016-10-11T07:40:35.360Z,10.01
2016-10-11T07:41:35.376Z,9.99
2016-10-11T07:42:20.485Z,10.07
2016-10-11T07:43:20.501Z,10.15
2016-10-11T07:44:20.527Z,10.15
2016-10-11T07:45:20.541Z,10.2
2016-10-11T07:46:20.559Z,10.12
2016-10-11T07:47:20.585Z,10.11
2016-10-11T07:48:20.606Z,10.04
2016-10-11T07:49:20.626Z,10.18
2016-10-11T07:50:20.653Z,10.17
2016-10-11T07:51:20.676Z,10.09
2016-10-11T07:53:20.715Z,10.11
2016-10-11T07:54:20.791Z,10.08
2016-10-11T07:55:20.809Z,10.05
2016-10-11T07:56:35.697Z,10.17
2016-10-11T07:57:20.797Z,10.17
2016-10-11T07:58:20.819Z,10.27
2016-10-11T07:59:20.844Z,10.52
2016-10-11T08:00:20.870Z,10.59
2016-10-11T08:01:20.882Z,10.67
2016-10-11T08:02:20.912Z,10.61
2016-10-11T08:03:20.934Z,10.53
2016-10-11T08:04:20.952Z,10.52
2016-10-11T08:05:20.974Z,10.6
2016-10-11T08:06:20.988Z,10.53
2016-10-11T08:07:21.019Z,10.48
2016-10-11T08:08:21.038Z,10.44
2016-10-11T08:09:21.066Z,10.47
2016-10-11T08:10:36.004Z,10.48
2016-10-11T08:11:36.028Z,10.38
2016-10-11T08:12:21.129Z,10.33
2016-10-11T08:13:21.144Z,10.22
2016-10-11T08:14:21.171Z,10.25
2016-10-11T08:15:21.194Z,10.14
2016-10-11T08:16:21.214Z,10.18
2016-10-11T08:17:21.235Z,10.14
2016-10-11T08:18:21.261Z,10.18
2016-10-11T08:19:21.537Z,10.22
2016-10-11T08:20:21.317Z,10.12
2016-10-11T08:21:21.327Z,10.23
2016-10-11T08:22:21.340Z,10.29
2016-10-11T08:23:36.289Z,10.2
2016-10-11T08:24:21.380Z,10.17
2016-10-11T08:25:21.410Z,9.97
2016-10-11T08:26:21.734Z,10.09
2016-10-11T08:27:21.451Z,10.07
2016-10-11T08:28:21.468Z,10.02
2016-10-11T08:29:21.491Z,10.2
2016-10-11T08:30:21.768Z,10.11
2016-10-11T08:31:21.534Z,10.11
2016-10-11T08:32:21.560Z,10.12
2016-10-11T08:33:21.581Z,10.22
2016-10-11T08:34:21.601Z,10.17
2016-10-11T08:35:21.620Z,10.02
2016-10-11T08:36:21.641Z,10.15
2016-10-11T08:37:21.671Z,10.15
2016-10-11T08:38:21.699Z,10.09
2016-10-11T08:39:21.955Z,10.01
2016-10-11T08:40:21.732Z,10.01
2016-10-11T08:41:21.753Z,10.02
2016-10-11T08:42:21.774Z,10.01
2016-10-11T08:43:36.714Z,10.04
2016-10-11T08:44:21.822Z,10.15
2016-10-11T08:45:22.085Z,10.15
2016-10-11T08:46:21.864Z,10.23
2016-10-11T08:47:21.877Z,10.17
2016-10-11T08:48:21.900Z,10.15
2016-10-11T08:49:22.171Z,10.26
2016-10-11T08:50:21.960Z,10.27
2016-10-11T08:51:21.967Z,10.29
2016-10-11T08:52:21.987Z,10.2
2016-10-11T08:53:22.019Z,10.33
2016-10-11T08:55:22.049Z,10.55
2016-10-11T08:56:22.077Z,10.63
2016-10-11T08:57:22.134Z,10.67
2016-10-11T08:58:22.119Z,10.59
2016-10-11T08:59:37.063Z,10.52
2016-10-11T09:00:22.163Z,10.6
2016-10-11T09:01:22.181Z,10.74
2016-10-11T09:02:22.205Z,10.7
2016-10-11T09:03:22.232Z,10.82
2016-10-11T09:04:22.251Z,10.88
2016-10-11T09:05:22.267Z,10.96
2016-10-11T09:06:22.288Z,10.67
2016-10-11T09:07:22.309Z,10.74
2016-10-11T09:08:22.329Z,10.56
2016-10-11T09:10:22.378Z,10.47
2016-10-11T09:12:22.419Z,10.56
2016-10-11T09:13:22.443Z,10.61
2016-10-11T09:14:37.383Z,10.7
2016-10-11T09:16:22.508Z,10.88
2016-10-11T09:17:22.528Z,10.91
2016-10-11T09:18:22.549Z,10.86
2016-10-11T09:19:22.573Z,10.88
2016-10-11T09:20:22.596Z,10.88
2016-10-11T09:21:22.617Z,10.92
2016-10-11T09:22:22.639Z,10.92
2016-10-11T09:23:22.661Z,11.09
2016-10-11T09:24:22.980Z,11.24
2016-10-11T09:25:22.704Z,11.09
2016-10-11T09:27:22.745Z,11.29
2016-10-11T09:28:22.772Z,11.32
2016-10-11T09:29:22.785Z,11.22
2016-10-11T09:31:37.760Z,11.21
2016-10-11T09:32:22.859Z,11.27
2016-10-11T09:33:22.878Z,11.18
2016-10-11T09:34:22.906Z,11.11
2016-10-11T09:35:23.477Z,11.07
2016-10-11T09:36:22.955Z,10.94
2016-10-11T09:37:22.976Z,10.99
2016-10-11T09:38:22.988Z,10.92
2016-10-11T09:39:23.007Z,10.96
2016-10-11T09:40:23.041Z,10.86
2016-10-11T09:41:23.055Z,10.84
2016-10-11T09:42:37.999Z,10.81
2016-10-11T09:43:38.022Z,10.84
2016-10-11T09:44:23.126Z,10.86
2016-10-11T09:45:23.143Z,10.91
2016-10-11T09:46:38.085Z,10.89
2016-10-11T09:47:23.187Z,10.88
2016-10-11T09:48:23.213Z,10.74
2016-10-11T09:49:23.232Z,10.71
2016-10-11T09:50:23.255Z,10.68
2016-10-11T09:51:23.271Z,10.67
2016-10-11T09:52:23.295Z,10.79
2016-10-11T09:54:23.391Z,10.44
2016-10-11T09:55:23.359Z,10.51
2016-10-11T09:56:23.382Z,10.47
2016-10-11T09:57:23.399Z,10.47
2016-10-11T09:58:23.425Z,10.47
2016-10-11T09:59:38.372Z,10.51
2016-10-11T10:00:38.390Z,10.53
2016-10-11T10:01:23.488Z,10.51
2016-10-11T10:02:23.515Z,10.45
2016-10-11T10:03:23.539Z,10.53
2016-10-11T10:04:23.562Z,10.48
2016-10-11T10:05:23.579Z,10.53
2016-10-11T10:06:23.598Z,10.53
2016-10-11T10:07:23.620Z,10.52
2016-10-11T10:08:38.574Z,10.4
2016-10-11T10:09:23.662Z,10.34
2016-10-11T10:10:23.683Z,10.27
2016-10-11T10:11:23.713Z,10.29
2016-10-11T10:12:23.731Z,10.25
2016-10-11T10:13:23.753Z,10.29
2016-10-11T10:14:23.774Z,10.26
2016-10-11T10:15:23.793Z,10.27
2016-10-11T10:16:23.820Z,10.32
2016-10-11T10:17:23.837Z,10.22
2016-10-11T10:18:38.781Z,10.22
2016-10-11T10:19:23.883Z,10.15
2016-10-11T10:20:23.903Z,10.15
2016-10-11T10:21:23.927Z,10.17
2016-10-11T10:22:23.972Z,10.25
2016-10-11T10:23:23.968Z,10.36
2016-10-11T10:25:24.012Z,10.34
2016-10-11T10:27:24.054Z,10.36
2016-10-11T10:28:24.317Z,10.34
2016-10-11T10:29:24.094Z,10.3
2016-10-11T10:31:24.139Z,10.25
2016-10-11T10:32:24.153Z,10.27
2016-10-11T10:33:24.183Z,10.23
2016-10-11T10:34:39.125Z,10.25
2016-10-11T10:35:24.231Z,10.25
2016-10-11T10:36:24.245Z,10.26
2016-10-11T10:37:24.266Z,10.27
2016-10-11T10:38:24.290Z,10.17
2016-10-11T10:39:24.561Z,10.15
2016-10-11T10:40:24.330Z,10.26
2016-10-11T10:41:24.359Z,10.27
2016-10-11T10:42:24.380Z,10.25
2016-10-11T10:43:24.406Z,10.26
2016-10-11T10:44:39.342Z,10.26
2016-10-11T10:45:24.440Z,10.23
2016-10-11T10:47:24.486Z,10.12
2016-10-11T10:48:24.499Z,10.15
2016-10-11T10:49:24.531Z,10.17
2016-10-11T10:50:39.471Z,10.15
2016-10-11T10:51:24.573Z,10.2
2016-10-11T10:52:24.592Z,10.22
2016-10-11T10:53:24.610Z,10.22
2016-10-11T10:54:24.635Z,10.23
2016-10-11T10:55:24.654Z,10.2
2016-10-11T10:56:24.685Z,10.3
2016-10-11T10:57:24.699Z,10.27
2016-10-11T10:58:24.716Z,10.25
2016-10-11T10:59:24.746Z,10.25
2016-10-11T11:00:24.761Z,10.26
2016-10-11T11:01:24.796Z,10.32
2016-10-11T11:02:24.808Z,10.29
2016-10-11T11:03:25.078Z,10.23
2016-10-11T11:04:24.850Z,10.26
2016-10-11T11:05:24.864Z,10.36
2016-10-11T11:06:39.814Z,10.33
2016-10-11T11:07:24.916Z,10.26
2016-10-11T11:08:24.938Z,10.32
2016-10-11T11:09:25.005Z,10.25
2016-10-11T11:10:24.978Z,10.23
2016-10-11T11:11:25.000Z,10.29
2016-10-11T11:12:25.019Z,10.3
2016-10-11T11:13:25.044Z,10.25
2016-10-11T11:14:25.063Z,10.32
2016-10-11T11:15:25.084Z,10.38
2016-10-11T11:16:25.101Z,10.42
2016-10-11T11:17:25.125Z,10.51
2016-10-11T11:18:25.150Z,10.51
2016-10-11T11:19:25.173Z,10.52
2016-10-11T11:20:25.189Z,10.51
2016-10-11T11:21:40.135Z,10.61
2016-10-11T11:22:25.240Z,10.6
2016-10-11T11:23:25.253Z,10.7
2016-10-11T11:24:25.284Z,10.7
2016-10-11T11:25:25.301Z,10.78
2016-10-11T11:27:25.744Z,10.88
2016-10-11T11:28:25.358Z,10.86
2016-10-11T11:29:25.385Z,10.82
2016-10-11T11:30:25.406Z,10.97
2016-10-11T11:31:25.428Z,10.96
2016-10-11T11:32:40.375Z,10.96
2016-10-11T11:33:25.476Z,10.82
2016-10-11T11:34:25.490Z,10.86
2016-10-11T11:35:25.516Z,10.91
2016-10-11T11:36:40.459Z,10.74
2016-10-11T11:37:40.478Z,10.91
2016-10-11T11:38:25.579Z,10.76
2016-10-11T11:39:25.908Z,10.74
2016-10-11T11:40:25.624Z,10.68
2016-10-11T11:42:25.669Z,10.71
2016-10-11T11:43:25.693Z,10.78
2016-10-11T11:44:25.728Z,10.84
2016-10-11T11:45:25.735Z,10.73
2016-10-11T11:46:25.755Z,10.76
2016-10-11T11:47:25.776Z,10.78
2016-10-11T11:48:40.723Z,10.76
2016-10-11T11:49:25.817Z,10.84
2016-10-11T11:50:25.849Z,10.71
2016-10-11T11:51:25.868Z,10.86
2016-10-11T11:52:40.803Z,10.82
2016-10-11T11:53:40.829Z,10.91
2016-10-11T11:54:25.929Z,10.96
2016-10-11T11:55:25.947Z,10.89
2016-10-11T11:56:25.971Z,10.88
2016-10-11T11:57:26.000Z,10.91
2016-10-11T11:58:26.012Z,10.81
2016-10-11T11:59:26.038Z,10.81
2016-10-11T12:00:26.052Z,10.89
2016-10-11T12:01:26.082Z,10.96
2016-10-11T12:02:26.103Z,10.88
2016-10-11T12:03:26.126Z,10.86
2016-10-11T12:04:41.067Z,10.86
2016-10-11T12:05:26.165Z,10.92
2016-10-11T12:06:26.192Z,10.86
2016-10-11T12:07:26.211Z,10.88
2016-10-11T12:08:26.230Z,10.79
2016-10-11T12:09:41.177Z,10.86
2016-10-11T12:10:26.273Z,10.88
2016-10-11T12:11:26.300Z,10.88
2016-10-11T12:12:26.329Z,10.82
2016-10-11T12:13:26.343Z,10.92
2016-10-11T12:14:26.360Z,10.89
2016-10-11T12:15:26.381Z,10.94
2016-10-11T12:16:26.411Z,11
2016-10-11T12:17:26.431Z,10.82
2016-10-11T12:18:41.376Z,10.7
2016-10-11T12:20:26.495Z,10.6
2016-10-11T12:21:26.513Z,10.7
2016-10-11T12:22:26.536Z,10.74
2016-10-11T12:23:26.562Z,10.7
2016-10-11T12:24:26.578Z,10.61
2016-10-11T12:25:41.519Z,10.59
2016-10-11T12:26:26.623Z,10.59
2016-10-11T12:27:26.662Z,10.66
2016-10-11T12:28:26.671Z,10.74
2016-10-11T12:29:26.683Z,10.63
2016-10-11T12:30:26.707Z,10.48
2016-10-11T12:31:26.733Z,10.4
2016-10-11T12:32:26.750Z,10.34
2016-10-11T12:33:26.774Z,10.36
2016-10-11T12:34:26.791Z,10.4
2016-10-11T12:35:26.813Z,10.29
2016-10-11T12:36:26.836Z,10.25
2016-10-11T12:37:26.859Z,10.36
2016-10-11T12:38:26.882Z,10.45
2016-10-11T12:39:26.904Z,10.32
2016-10-11T12:40:26.915Z,10.32
2016-10-11T12:41:41.866Z,10.23
2016-10-11T12:42:27.272Z,10.27
2016-10-11T12:43:26.992Z,10.25
2016-10-11T12:44:27.009Z,10.27
2016-10-11T12:45:27.048Z,10.26
2016-10-11T12:46:27.054Z,10.36
2016-10-11T12:47:27.070Z,10.33
2016-10-11T12:48:27.104Z,10.38
2016-10-11T12:49:27.117Z,10.41
2016-10-11T12:50:27.147Z,10.45
2016-10-11T12:53:27.198Z,10.18
2016-10-11T12:54:27.221Z,10.3
2016-10-11T12:55:27.249Z,10.3
2016-10-11T12:56:42.184Z,10.27
2016-10-11T12:57:27.536Z,10.17
2016-10-11T12:58:27.300Z,10.25
2016-10-11T12:59:27.330Z,10.23
2016-10-11T13:00:27.345Z,10.12
2016-10-11T13:01:43.293Z,10.05
2016-10-11T13:02:27.386Z,10.01
2016-10-11T13:03:27.412Z,9.89
2016-10-11T13:05:27.459Z,9.84
2016-10-11T13:06:27.499Z,9.9
2016-10-11T13:07:27.506Z,9.89
2016-10-11T13:08:27.519Z,9.79
2016-10-11T13:09:27.540Z,9.96
2016-10-11T13:11:27.582Z,9.96
2016-10-11T13:12:27.604Z,9.9
2016-10-11T13:13:27.622Z,9.97
2016-10-11T13:14:27.649Z,9.93
2016-10-11T13:15:27.663Z,9.93
2016-10-11T13:16:27.688Z,9.91
2016-10-11T13:17:27.706Z,9.96
2016-10-11T13:18:27.724Z,9.94
2016-10-11T13:19:27.760Z,9.86
2016-10-11T13:20:27.771Z,9.89
2016-10-11T13:21:27.798Z,9.94
2016-10-11T13:23:27.834Z,9.66
2016-10-11T13:24:27.851Z,9.58
2016-10-11T13:25:27.879Z,9.58
2016-10-11T13:26:27.903Z,9.56
2016-10-11T13:27:27.921Z,9.6
2016-10-11T13:28:42.862Z,9.48
2016-10-11T13:29:27.961Z,9.54
2016-10-11T13:30:27.984Z,9.56
2016-10-11T13:31:28.003Z,9.56
2016-10-11T13:32:28.021Z,9.6
2016-10-11T13:33:28.293Z,9.61
2016-10-11T13:34:28.068Z,9.61
2016-10-11T13:35:28.094Z,9.58
2016-10-11T13:36:28.112Z,9.58
2016-10-11T13:37:28.129Z,9.5
2016-10-11T13:38:28.155Z,9.48
2016-10-11T13:39:43.096Z,9.53
2016-10-11T13:40:28.450Z,9.51
2016-10-11T13:41:28.217Z,9.4
2016-10-11T13:42:28.482Z,9.42
2016-10-11T13:43:28.258Z,9.4
2016-10-11T13:44:43.196Z,9.48
2016-10-11T13:45:28.294Z,9.47
2016-10-11T13:46:28.318Z,9.57
2016-10-11T13:47:28.338Z,9.56
2016-10-11T13:48:43.290Z,9.56
2016-10-11T13:49:28.378Z,9.47
2016-10-11T13:50:28.454Z,9.42
2016-10-11T13:51:28.423Z,9.43
2016-10-11T13:52:28.443Z,9.4
2016-10-11T13:55:43.432Z,9.42
2016-10-11T13:56:28.534Z,9.31
2016-10-11T13:57:28.658Z,9.28
2016-10-11T13:58:28.570Z,9.24
2016-10-11T13:59:28.597Z,9.31
2016-10-11T14:00:43.530Z,9.21
2016-10-11T14:01:28.635Z,9.24
2016-10-11T14:02:28.649Z,9.31
2016-10-11T14:03:28.676Z,9.21
2016-10-11T14:04:28.702Z,9.26